createdAt,value
2018-09-03T00:01:24.177Z,22.60
2018-09-03T00:03:53.403Z,22.60
2018-09-03T00:06:22.675Z,22.60
2018-09-03T00:08:52.278Z,22.50
2018-09-03T00:11:26.536Z,22.50
2018-09-03T00:13:55.830Z,22.50
2018-09-03T00:16:25.090Z,22.50
2018-09-03T00:18:54.328Z,22.40
2018-09-03T00:21:23.761Z,22.40
2018-09-03T00:23:53.133Z,22.30
2018-09-03T00:26:22.505Z,22.20
2018-09-03T00:28:51.726Z,22.30
2018-09-03T00:31:31.359Z,22.30
2018-09-03T00:34:05.936Z,22.20
2018-09-03T00:36:40.512Z,22.20
2018-09-03T00:39:14.950Z,22.20
2018-09-03T00:41:49.401Z,22.20
2018-09-03T00:44:23.861Z,22.10
2018-09-03T00:46:56.158Z,22.00
2018-09-03T00:49:25.549Z,22.10
2018-09-03T00:51:54.859Z,22.00
2018-09-03T00:54:24.174Z,22.00
2018-09-03T00:56:53.452Z,22.10
2018-09-03T00:59:22.768Z,22.10
2018-09-03T01:01:52.115Z,22.00
2018-09-03T01:04:21.424Z,22.00
2018-09-03T01:06:50.762Z,22.00
2018-09-03T01:09:20.477Z,22.00
2018-09-03T01:11:49.820Z,22.00
2018-09-03T01:14:20.155Z,22.00
2018-09-03T01:16:49.431Z,21.90
2018-09-03T01:19:18.703Z,21.90
2018-09-03T01:21:47.931Z,22.00
2018-09-03T01:24:17.667Z,22.00
2018-09-03T01:26:46.922Z,21.90
2018-09-03T01:29:16.196Z,22.00
2018-09-03T01:31:49.651Z,22.00
2018-09-03T01:34:18.923Z,22.00
2018-09-03T01:36:48.219Z,22.00
2018-09-03T01:39:17.487Z,22.00
2018-09-03T01:41:46.751Z,22.00
2018-09-03T01:44:16.106Z,22.00
2018-09-03T01:46:45.402Z,21.90
2018-09-03T01:49:14.663Z,22.00
2018-09-03T01:51:43.958Z,21.90
2018-09-03T01:54:13.242Z,21.90
2018-09-03T01:56:42.981Z,21.90
2018-09-03T01:59:12.170Z,21.80
2018-09-03T02:01:42.585Z,21.70
2018-09-03T02:04:11.867Z,21.70
2018-09-03T02:06:41.488Z,21.80
2018-09-03T02:09:12.377Z,21.70
2018-09-03T02:11:42.107Z,21.70
2018-09-03T02:14:11.394Z,21.70
2018-09-03T02:16:40.624Z,21.70
2018-09-03T02:19:10.254Z,21.70
2018-09-03T02:21:39.524Z,21.60
2018-09-03T02:24:08.830Z,21.60
2018-09-03T02:26:38.155Z,21.60
2018-09-03T02:29:07.487Z,21.70
2018-09-03T02:31:36.791Z,21.70
2018-09-03T02:34:06.095Z,21.60
2018-09-03T02:36:35.397Z,21.60
2018-09-03T02:39:06.369Z,21.50
2018-09-03T02:41:35.679Z,21.50
2018-09-03T02:44:04.935Z,21.60
2018-09-03T02:46:34.266Z,21.50
2018-09-03T02:49:03.520Z,21.50
2018-09-03T02:51:32.779Z,21.50
2018-09-03T02:54:02.967Z,21.50
2018-09-03T02:56:32.210Z,21.50
2018-09-03T02:59:01.483Z,21.50
2018-09-03T03:01:30.798Z,21.50
2018-09-03T03:04:00.012Z,21.60
2018-09-03T03:06:29.304Z,21.60
2018-09-03T03:08:58.623Z,21.60
2018-09-03T03:11:27.861Z,21.60
2018-09-03T03:13:57.111Z,21.60
2018-09-03T03:16:26.686Z,21.50
2018-09-03T03:18:55.995Z,21.50
2018-09-03T03:21:25.420Z,21.40
2018-09-03T03:23:55.065Z,21.30
2018-09-03T03:26:24.330Z,21.30
2018-09-03T03:28:53.761Z,21.20
2018-09-03T03:31:23.373Z,21.10
2018-09-03T03:33:52.772Z,21.10
2018-09-03T03:36:22.127Z,21.10
2018-09-03T03:39:06.141Z,21.10
2018-09-03T03:41:35.407Z,21.10
2018-09-03T03:44:04.763Z,21.00
2018-09-03T03:46:34.180Z,21.00
2018-09-03T03:49:03.433Z,21.00
2018-09-03T03:51:32.671Z,21.00
2018-09-03T03:54:01.901Z,21.00
2018-09-03T03:56:31.226Z,21.10
2018-09-03T03:59:00.495Z,21.10
2018-09-03T04:01:29.735Z,21.10
2018-09-03T04:03:59.015Z,21.10
2018-09-03T04:06:28.525Z,21.00
2018-09-03T04:08:57.842Z,21.00
2018-09-03T04:11:27.184Z,20.90
2018-09-03T04:13:56.524Z,20.80
2018-09-03T04:16:25.947Z,20.80
2018-09-03T04:18:57.340Z,20.80
2018-09-03T04:21:26.906Z,20.70
2018-09-03T04:23:56.532Z,20.70
2018-09-03T04:26:25.820Z,20.70
2018-09-03T04:28:55.289Z,20.70
2018-09-03T04:31:24.598Z,20.60
2018-09-03T04:33:53.959Z,20.60
2018-09-03T04:36:23.312Z,20.60
2018-09-03T04:38:52.734Z,20.60
2018-09-03T04:41:21.956Z,20.50
2018-09-03T04:43:56.785Z,20.50
2018-09-03T04:46:26.157Z,20.40
2018-09-03T04:48:55.834Z,20.50
2018-09-03T04:51:25.131Z,20.60
2018-09-03T04:53:54.504Z,20.60
2018-09-03T04:56:23.716Z,20.70
2018-09-03T04:58:53.100Z,20.70
2018-09-03T05:01:22.515Z,20.70
2018-09-03T05:03:52.210Z,20.50
2018-09-03T05:06:21.611Z,20.50
2018-09-03T05:08:50.898Z,20.50
2018-09-03T05:11:20.257Z,20.50
2018-09-03T05:13:53.127Z,20.60
2018-09-03T05:16:22.399Z,20.60
2018-09-03T05:18:51.843Z,20.60
2018-09-03T05:21:21.132Z,20.50
2018-09-03T05:23:50.410Z,20.50
2018-09-03T05:26:19.782Z,20.60
2018-09-03T05:28:49.068Z,20.50
2018-09-03T05:31:20.318Z,20.50
2018-09-03T05:33:50.579Z,20.60
2018-09-03T05:36:20.100Z,20.60
2018-09-03T05:38:49.509Z,20.70
2018-09-03T05:41:18.902Z,20.80
2018-09-03T05:43:48.183Z,20.60
2018-09-03T05:46:17.563Z,20.60
2018-09-03T05:48:46.825Z,20.60
2018-09-03T05:51:16.075Z,20.40
2018-09-03T05:53:45.448Z,20.50
2018-09-03T05:56:14.662Z,20.60
2018-09-03T05:58:43.839Z,20.60
2018-09-03T06:01:13.067Z,20.70
2018-09-03T06:03:42.333Z,20.70
2018-09-03T06:06:11.602Z,20.70
2018-09-03T06:08:40.823Z,20.70
2018-09-03T06:11:10.176Z,20.80
2018-09-03T06:13:39.334Z,20.80
2018-09-03T06:16:08.597Z,20.60
2018-09-03T06:18:37.903Z,20.60
2018-09-03T06:21:13.199Z,20.70
2018-09-03T06:23:42.536Z,20.80
2018-09-03T06:26:12.069Z,20.90
2018-09-03T06:28:41.321Z,21.00
2018-09-03T06:31:10.606Z,21.20
2018-09-03T06:33:39.847Z,21.10
2018-09-03T06:36:09.085Z,21.00
2018-09-03T06:38:38.402Z,21.10
2018-09-03T06:41:07.675Z,21.20
2018-09-03T06:43:36.992Z,21.20
2018-09-03T06:46:06.231Z,21.30
2018-09-03T06:48:35.535Z,21.40
2018-09-03T06:51:04.843Z,21.40
2018-09-03T06:53:37.809Z,21.20
2018-09-03T06:56:07.119Z,21.20
2018-09-03T06:58:36.351Z,21.20
2018-09-03T07:01:05.807Z,21.30
2018-09-03T07:03:35.127Z,21.20
2018-09-03T07:06:04.499Z,21.30
2018-09-03T07:08:33.831Z,21.30
2018-09-03T07:11:03.214Z,21.40
2018-09-03T07:13:32.510Z,21.40
2018-09-03T07:16:01.839Z,21.30
2018-09-03T07:18:31.110Z,21.40
2018-09-03T07:21:00.596Z,21.30
2018-09-03T07:23:29.929Z,21.40
2018-09-03T07:25:59.234Z,21.50
2018-09-03T07:28:28.627Z,21.50
2018-09-03T07:30:58.327Z,21.60
2018-09-03T07:33:27.667Z,21.50
2018-09-03T07:35:57.075Z,21.80
2018-09-03T07:38:26.624Z,21.70
2018-09-03T07:40:55.911Z,21.90
2018-09-03T07:43:25.171Z,22.10
2018-09-03T07:45:54.553Z,22.20
2018-09-03T07:48:23.815Z,22.30
2018-09-03T07:50:53.048Z,22.40
2018-09-03T07:53:22.332Z,22.50
2018-09-03T07:55:51.582Z,22.60
2018-09-03T07:58:20.968Z,22.40
2018-09-03T08:00:50.245Z,22.50
2018-09-03T08:03:19.575Z,22.50
2018-09-03T08:05:48.819Z,22.70
2018-09-03T08:08:18.172Z,22.80
2018-09-03T08:10:47.456Z,23.10
2018-09-03T08:13:21.932Z,23.20
2018-09-03T08:15:51.181Z,23.30
2018-09-03T08:18:20.537Z,23.00
2018-09-03T08:20:49.799Z,23.00
2018-09-03T08:23:19.032Z,23.20
2018-09-03T08:25:48.303Z,23.10
2018-09-03T08:28:17.927Z,23.30
2018-09-03T08:30:47.540Z,23.50
2018-09-03T08:33:16.799Z,23.70
2018-09-03T08:35:46.069Z,23.70
2018-09-03T08:38:15.410Z,23.60
2018-09-03T08:40:44.689Z,23.80
2018-09-03T08:43:14.981Z,23.80
2018-09-03T08:45:44.240Z,24.10
2018-09-03T08:48:13.535Z,24.40
2018-09-03T08:50:42.794Z,24.50
2018-09-03T08:53:12.056Z,24.10
2018-09-03T08:55:41.313Z,24.20
2018-09-03T08:58:10.631Z,24.10
2018-09-03T09:00:39.963Z,24.20
2018-09-03T09:03:14.582Z,24.40
2018-09-03T09:05:43.901Z,24.80
2018-09-03T09:08:13.177Z,24.70
2018-09-03T09:10:42.431Z,25.10
2018-09-03T09:13:11.840Z,25.00
2018-09-03T09:15:41.647Z,25.30
2018-09-03T09:18:10.932Z,25.60
2018-09-03T09:20:40.586Z,25.70
2018-09-03T09:23:09.925Z,25.80
2018-09-03T09:25:39.143Z,25.90
2018-09-03T09:28:08.570Z,26.00
2018-09-03T09:30:37.815Z,26.10
2018-09-03T09:33:07.232Z,26.10
2018-09-03T09:35:36.599Z,25.90
2018-09-03T09:38:05.986Z,26.10
2018-09-03T09:40:35.317Z,26.00
2018-09-03T09:43:04.707Z,25.80
2018-09-03T09:45:33.956Z,25.90
2018-09-03T09:48:03.232Z,26.20
2018-09-03T09:50:32.575Z,26.20
2018-09-03T09:53:01.988Z,26.30
2018-09-03T09:55:31.264Z,26.40
2018-09-03T09:58:00.489Z,26.60
2018-09-03T10:00:34.780Z,26.40
2018-09-03T10:03:04.101Z,26.10
2018-09-03T10:05:33.374Z,26.00
2018-09-03T10:08:02.960Z,25.80
2018-09-03T10:10:32.139Z,25.80
2018-09-03T10:13:01.387Z,26.10
2018-09-03T10:15:30.689Z,26.20
2018-09-03T10:18:00.023Z,26.20
2018-09-03T10:20:29.319Z,26.30
2018-09-03T10:22:58.543Z,26.50
2018-09-03T10:25:27.740Z,26.70
2018-09-03T10:27:57.028Z,26.90
2018-09-03T10:30:26.367Z,26.50
2018-09-03T10:32:55.640Z,26.30
2018-09-03T10:35:24.879Z,26.70
2018-09-03T10:37:54.129Z,27.00
2018-09-03T10:40:23.453Z,26.70
2018-09-03T10:42:52.732Z,26.60
2018-09-03T10:45:22.117Z,26.90
2018-09-03T10:47:51.418Z,26.70
2018-09-03T10:50:20.703Z,26.60
2018-09-03T10:52:49.927Z,26.30
2018-09-03T10:55:19.228Z,26.10
2018-09-03T10:57:48.548Z,26.00
2018-09-03T11:00:17.869Z,26.20
2018-09-03T11:02:47.158Z,26.30
2018-09-03T11:05:16.566Z,26.10
2018-09-03T11:07:45.821Z,26.30
2018-09-03T11:10:15.118Z,26.50
2018-09-03T11:12:44.493Z,26.80
2018-09-03T11:15:13.760Z,27.20
2018-09-03T11:17:43.365Z,27.30
2018-09-03T11:20:16.276Z,27.50
2018-09-03T11:22:45.537Z,27.40
2018-09-03T11:25:14.838Z,27.20
2018-09-03T11:27:44.135Z,27.40
2018-09-03T11:30:13.477Z,27.50
2018-09-03T11:32:46.833Z,27.20
2018-09-03T11:35:16.147Z,27.20
2018-09-03T11:37:45.391Z,27.30
2018-09-03T11:40:14.661Z,27.50
2018-09-03T11:42:43.972Z,27.30
2018-09-03T11:45:13.248Z,27.50
2018-09-03T11:47:42.469Z,27.60
2018-09-03T11:50:11.817Z,27.60
2018-09-03T11:52:41.082Z,27.60
2018-09-03T11:55:10.531Z,27.80
2018-09-03T11:57:39.838Z,27.20
2018-09-03T12:00:12.713Z,27.50
2018-09-03T12:02:42.003Z,27.90
2018-09-03T12:05:11.261Z,27.70
2018-09-03T12:07:40.531Z,28.10
2018-09-03T12:10:09.783Z,28.00
2018-09-03T12:12:39.098Z,27.70
2018-09-03T12:15:12.942Z,27.90
2018-09-03T12:17:42.256Z,28.00
2018-09-03T12:20:11.551Z,28.10
2018-09-03T12:22:40.867Z,28.20
2018-09-03T12:25:10.218Z,28.10
2018-09-03T12:27:39.482Z,28.20
2018-09-03T12:30:08.965Z,27.90
2018-09-03T12:32:38.278Z,27.90
2018-09-03T12:35:07.755Z,27.80
2018-09-03T12:37:37.021Z,28.20
2018-09-03T12:40:06.431Z,28.10
2018-09-03T12:42:35.720Z,28.20
2018-09-03T12:45:05.192Z,28.20
2018-09-03T12:47:34.535Z,28.50
2018-09-03T12:50:03.979Z,28.30
2018-09-03T12:52:33.288Z,28.40
2018-09-03T12:55:02.511Z,28.30
2018-09-03T12:57:31.820Z,28.20
2018-09-03T13:00:05.147Z,28.30
2018-09-03T13:02:30.419Z,28.10
2018-09-03T13:04:59.719Z,27.90
2018-09-03T13:07:28.984Z,27.70
2018-09-03T13:09:58.307Z,27.90
2018-09-03T13:12:27.546Z,27.80
2018-09-03T13:14:56.840Z,27.60
2018-09-03T13:17:26.138Z,28.00
2018-09-03T13:19:55.468Z,27.70
2018-09-03T13:22:24.789Z,27.60
2018-09-03T13:24:54.124Z,27.90
2018-09-03T13:27:23.412Z,27.80
2018-09-03T13:29:52.669Z,27.80
2018-09-03T13:32:22.012Z,27.80
2018-09-03T13:34:51.266Z,28.10
2018-09-03T13:37:20.611Z,28.10
2018-09-03T13:39:49.974Z,28.20
2018-09-03T13:42:19.290Z,28.20
2018-09-03T13:44:48.552Z,28.30
2018-09-03T13:47:17.773Z,28.20
2018-09-03T13:49:47.055Z,28.20
2018-09-03T13:52:16.532Z,28.20
2018-09-03T13:54:46.094Z,28.40
2018-09-03T13:57:15.536Z,28.60
2018-09-03T13:59:44.795Z,28.10
2018-09-03T14:02:14.058Z,28.00
2018-09-03T14:04:43.305Z,28.30
2018-09-03T14:07:12.598Z,28.30
2018-09-03T14:09:41.948Z,28.20
2018-09-03T14:12:11.313Z,28.50
2018-09-03T14:14:40.579Z,28.80
2018-09-03T14:17:09.890Z,28.80
2018-09-03T14:19:39.220Z,28.90
2018-09-03T14:22:08.495Z,28.90
2018-09-03T14:24:37.891Z,28.90
2018-09-03T14:27:07.384Z,29.10
2018-09-03T14:29:36.618Z,29.40
2018-09-03T14:32:06.022Z,29.10
2018-09-03T14:34:35.279Z,29.00
2018-09-03T14:37:04.636Z,29.20
2018-09-03T14:39:33.951Z,29.00
2018-09-03T14:42:03.206Z,29.20
2018-09-03T14:44:32.453Z,29.30
2018-09-03T14:47:01.757Z,29.10
2018-09-03T14:49:31.134Z,29.30
2018-09-03T14:52:00.461Z,29.40
2018-09-03T14:54:29.724Z,29.20
2018-09-03T14:56:58.995Z,29.20
2018-09-03T14:59:28.365Z,29.50
2018-09-03T15:01:57.736Z,29.20
2018-09-03T15:04:27.086Z,29.10
2018-09-03T15:06:56.419Z,29.00
2018-09-03T15:09:25.693Z,29.10
2018-09-03T15:11:54.969Z,28.60
2018-09-03T15:14:24.282Z,28.90
2018-09-03T15:16:53.588Z,29.00
2018-09-03T15:19:22.819Z,29.00
2018-09-03T15:21:52.048Z,29.00
2018-09-03T15:24:21.344Z,28.90
2018-09-03T15:26:50.724Z,28.40
2018-09-03T15:29:20.042Z,28.00
2018-09-03T15:31:49.435Z,27.70
2018-09-03T15:34:18.694Z,27.90
2018-09-03T15:36:47.971Z,27.70
2018-09-03T15:39:17.279Z,28.00
2018-09-03T15:41:46.499Z,28.00
2018-09-03T15:44:15.779Z,28.00
2018-09-03T15:46:45.028Z,28.00
2018-09-03T15:49:14.397Z,27.70
2018-09-03T15:51:43.711Z,28.10
2018-09-03T15:54:12.954Z,28.00
2018-09-03T15:56:42.206Z,27.60
2018-09-03T15:59:14.929Z,27.90
2018-09-03T16:01:44.242Z,28.00
2018-09-03T16:04:13.509Z,28.10
2018-09-03T16:06:42.826Z,27.50
2018-09-03T16:09:12.157Z,27.80
2018-09-03T16:11:41.595Z,27.90
2018-09-03T16:14:10.910Z,27.70
2018-09-03T16:16:40.194Z,27.60
2018-09-03T16:19:09.543Z,27.50
2018-09-03T16:21:54.098Z,27.50
2018-09-03T16:24:30.174Z,27.70
2018-09-03T16:26:59.680Z,28.00
2018-09-03T16:29:29.055Z,27.90
2018-09-03T16:31:58.351Z,27.90
2018-09-03T16:34:27.755Z,27.70
2018-09-03T16:36:57.018Z,27.50
2018-09-03T16:39:26.304Z,27.50
2018-09-03T16:41:55.762Z,27.40
2018-09-03T16:44:25.000Z,27.60
2018-09-03T16:46:54.347Z,27.70
2018-09-03T16:49:23.690Z,27.70
2018-09-03T16:51:53.012Z,27.70
2018-09-03T16:54:22.460Z,27.80
2018-09-03T16:56:51.835Z,27.80
2018-09-03T16:59:21.825Z,27.90
2018-09-03T17:01:51.076Z,27.90
2018-09-03T17:04:20.378Z,27.80
2018-09-03T17:06:49.739Z,27.80
2018-09-03T17:09:19.601Z,27.70
2018-09-03T17:11:48.980Z,27.80
2018-09-03T17:14:20.305Z,27.70
2018-09-03T17:16:49.623Z,27.70
2018-09-03T17:19:18.861Z,27.60
2018-09-03T17:21:48.538Z,27.60
2018-09-03T17:24:17.841Z,27.50
2018-09-03T17:26:47.133Z,27.50
2018-09-03T17:29:16.420Z,27.40
2018-09-03T17:31:45.787Z,27.40
2018-09-03T17:34:15.059Z,27.20
2018-09-03T17:36:44.429Z,27.10
2018-09-03T17:39:14.784Z,27.10
2018-09-03T17:41:44.068Z,27.00
2018-09-03T17:44:13.358Z,26.90
2018-09-03T17:46:42.716Z,26.90
2018-09-03T17:49:12.434Z,26.80
2018-09-03T17:51:41.941Z,26.80
2018-09-03T17:54:11.230Z,26.70
2018-09-03T17:56:40.579Z,26.80
2018-09-03T17:59:09.882Z,26.70
2018-09-03T18:01:39.217Z,26.30
2018-09-03T18:04:09.275Z,26.20
2018-09-03T18:06:38.610Z,26.50
2018-09-03T18:09:08.248Z,26.50
2018-09-03T18:11:37.535Z,26.50
2018-09-03T18:14:06.910Z,26.50
2018-09-03T18:16:36.308Z,26.50
2018-09-03T18:19:05.688Z,26.50
2018-09-03T18:21:35.142Z,26.50
2018-09-03T18:24:06.435Z,26.50
2018-09-03T18:26:35.813Z,26.50
2018-09-03T18:29:05.172Z,26.50
2018-09-03T18:31:34.507Z,26.50
2018-09-03T18:34:03.971Z,26.40
2018-09-03T18:36:33.339Z,26.40
2018-09-03T18:39:02.783Z,26.30
2018-09-03T18:41:32.013Z,26.30
2018-09-03T18:44:01.352Z,26.30
2018-09-03T18:46:32.863Z,26.30
2018-09-03T18:49:02.448Z,26.30
2018-09-03T18:51:31.711Z,26.10
2018-09-03T18:54:01.143Z,26.10
2018-09-03T18:56:30.379Z,26.10
2018-09-03T18:58:59.763Z,26.10
2018-09-03T19:01:29.235Z,26.10
2018-09-03T19:03:58.556Z,26.10
2018-09-03T19:06:27.992Z,26.10
2018-09-03T19:08:57.267Z,26.00
2018-09-03T19:11:26.609Z,26.00
2018-09-03T19:13:55.855Z,26.10
2018-09-03T19:16:25.175Z,26.10
2018-09-03T19:18:54.452Z,26.00
2018-09-03T19:21:23.691Z,26.00
2018-09-03T19:23:53.071Z,26.00
2018-09-03T19:26:23.152Z,26.00
2018-09-03T19:28:52.801Z,26.00
2018-09-03T19:31:22.172Z,25.90
2018-09-03T19:33:51.485Z,25.90
2018-09-03T19:36:20.819Z,25.90
2018-09-03T19:38:50.137Z,25.90
2018-09-03T19:41:19.471Z,25.80
2018-09-03T19:43:49.780Z,25.70
2018-09-03T19:46:19.103Z,25.70
2018-09-03T19:48:48.431Z,25.70
2018-09-03T19:51:17.751Z,25.60
2018-09-03T19:53:47.124Z,25.60
2018-09-03T19:56:18.609Z,25.60
2018-09-03T19:58:49.992Z,25.60
2018-09-03T20:01:19.273Z,25.70
2018-09-03T20:03:48.543Z,25.60
2018-09-03T20:06:17.930Z,25.50
2018-09-03T20:08:48.280Z,25.30
2018-09-03T20:11:17.589Z,25.30
2018-09-03T20:13:46.803Z,25.30
2018-09-03T20:16:16.822Z,25.40
2018-09-03T20:18:46.110Z,25.40
2018-09-03T20:21:15.386Z,25.50
2018-09-03T20:23:45.036Z,25.00
2018-09-03T20:26:14.329Z,24.80
2018-09-03T20:28:43.579Z,24.80
2018-09-03T20:31:12.901Z,24.50
2018-09-03T20:33:42.199Z,24.70
2018-09-03T20:36:11.417Z,24.80
2018-09-03T20:38:40.753Z,24.90
2018-09-03T20:41:10.462Z,24.90
2018-09-03T20:43:39.735Z,24.90
2018-09-03T20:46:09.079Z,24.80
2018-09-03T20:48:38.476Z,24.80
2018-09-03T20:51:07.758Z,24.80
2018-09-03T20:53:37.158Z,24.80
2018-09-03T20:56:06.764Z,24.80
2018-09-03T20:58:36.087Z,24.80
2018-09-03T21:01:05.387Z,24.70
2018-09-03T21:03:34.691Z,24.70
2018-09-03T21:06:03.991Z,24.70
2018-09-03T21:08:33.329Z,24.60
2018-09-03T21:11:02.627Z,24.70
2018-09-03T21:13:32.256Z,24.60
2018-09-03T21:16:01.589Z,24.60
2018-09-03T21:18:30.859Z,24.60
2018-09-03T21:21:00.132Z,24.60
2018-09-03T21:23:29.455Z,24.50
2018-09-03T21:25:58.763Z,24.40
2018-09-03T21:28:29.191Z,24.40
2018-09-03T21:30:58.462Z,24.50
2018-09-03T21:33:27.769Z,24.40
2018-09-03T21:35:57.099Z,24.40
2018-09-03T21:38:26.371Z,24.40
2018-09-03T21:40:55.587Z,24.40
2018-09-03T21:43:24.823Z,24.40
2018-09-03T21:45:54.546Z,24.30
2018-09-03T21:48:23.812Z,24.30
2018-09-03T21:50:53.155Z,24.30
2018-09-03T21:53:22.482Z,24.30
2018-09-03T21:55:52.862Z,24.30
2018-09-03T21:58:22.115Z,24.30
2018-09-03T22:00:51.386Z,24.20
2018-09-03T22:03:20.636Z,24.10
2018-09-03T22:05:49.915Z,24.10
2018-09-03T22:08:19.211Z,24.10
2018-09-03T22:10:48.528Z,24.10
2018-09-03T22:13:20.119Z,24.10
2018-09-03T22:15:49.417Z,24.10
2018-09-03T22:18:18.720Z,24.00
2018-09-03T22:20:48.047Z,24.10
2018-09-03T22:23:17.320Z,24.20
2018-09-03T22:25:46.583Z,24.20
2018-09-03T22:28:15.862Z,24.20
2018-09-03T22:30:45.163Z,24.20
2018-09-03T22:33:14.443Z,24.20
2018-09-03T22:35:43.701Z,24.20
2018-09-03T22:38:12.958Z,24.20
2018-09-03T22:40:42.263Z,24.20
2018-09-03T22:43:11.514Z,24.20
2018-09-03T22:45:40.756Z,23.60
2018-09-03T22:48:11.193Z,23.10
2018-09-03T22:50:40.514Z,22.70
2018-09-03T22:53:09.776Z,22.40
2018-09-03T22:55:38.995Z,22.10
2018-09-03T22:58:08.263Z,21.90
2018-09-03T23:00:37.537Z,21.90
2018-09-03T23:03:12.702Z,22.10
2018-09-03T23:05:41.951Z,22.70
2018-09-03T23:08:11.271Z,23.00
2018-09-03T23:10:40.505Z,23.30
2018-09-03T23:13:09.695Z,23.40
2018-09-03T23:15:38.998Z,23.40
2018-09-03T23:18:08.239Z,23.50
2018-09-03T23:20:37.595Z,23.60
2018-09-03T23:23:06.838Z,23.60
2018-09-03T23:25:36.094Z,23.60
2018-09-03T23:28:05.411Z,23.60
2018-09-03T23:30:34.614Z,23.60
2018-09-03T23:33:03.876Z,23.60
2018-09-03T23:35:34.577Z,23.50
2018-09-03T23:38:03.859Z,23.50
2018-09-03T23:40:33.248Z,23.50
2018-09-03T23:43:02.535Z,23.60
2018-09-03T23:45:31.818Z,23.60
2018-09-03T23:48:01.131Z,23.70
2018-09-03T23:50:30.403Z,23.70
2018-09-03T23:52:59.679Z,23.70
2018-09-03T23:55:28.958Z,23.70
2018-09-03T23:57:58.214Z,23.70
